Liebenthal, KS (67553)

9:31 PM CDT on August 21, 2014 (GMT -0500)
Rural Ellis Co. | Change Station
CLOSE
Current Station
Personal Weather Station
Location: Hays, KS
Elevation: 2077 ft
Nearby Weather Stations

Elev 2077 ft 38.81 °N, 99.37 °W | Updated 7 minutes ago

Clear
Clear
85.1 °F
Feels Like 89 °F
N
0.0
Wind Variable Wind from SW

Today
High -- | Low -- °F
--% Chance of Precip.
Yesterday
High -- | Low -- °F
Precip. -- in
6:56 AM 8:23 PM
Waning Crescent, 11% visible
Pressure 29.85 in
Visibility 10.0 miles
Clouds Clear
Heat Index 89 °F
Dew Point 69 °F
Humidity 59%
Rainfall 0.00 in
Snow Depth Not available.
UV 0 out of 12
Pollen 11.20 out of 12
Air Quality Not available.
Flu Activity Not available.
METAR KHYS 220215Z 18006KT 10SM CLR 32/18 A2985 RMK AO1 LTG DSNT N

More Conditions Fewer Conditions

Pressure 29.85 in
Visibility 10.0 miles
Clouds Clear
Heat Index 89 °F
Dew Point 69 °F
Humidity 59%
Rainfall 0.00 in
Snow Depth Not available.
UV 0 out of 12
Pollen 11.20 out of 12
Air Quality Not available.
Flu Activity Not available.
METAR KHYS 220215Z 18006KT 10SM CLR 32/18 A2985 RMK AO1 LTG DSNT N

More Conditions Fewer Conditions

10-Day Weather Forecast

Almanac

Astronomy

Aug. 21, 2014 Rise Set
Actual Time 6:56 AM CDT 8:23 PM CDT
Civil Twilight 6:28 AM CDT 8:51 PM CDT
Nautical Twilight 5:55 AM CDT 9:24 PM CDT
Astronomical Twilight 5:19 AM CDT 9:59 PM CDT
Moon 3:29 AM CDT (8/21) 5:52 PM CDT (8/21)
Length of Visible Light 14h 22m
Length of Day
13h 26m
Tomorrow will be 2m 18s shorter.
Waning Crescent, 11% of the Moon is Illuminated
Today
Waning Crescent
Aug 25
New
Sep 2
First Quarter
Sep 8
Full
Sep 15
Last Quarter

Today's Extremes

State Highs State Lows

Community

WunderPhotos

Upload Photos

1,746,109 photos uploaded!

WunderBlogs® & News

Nearby

Snow Depth

Station Depth Elevation
No new snow has been reported.

Earthquake Activity

City Distance Mag. Time & Date
Medford, Oklahoma 150 miles 2.7 2:28 AM CDT
2014-08-17
Medford, Oklahoma 149 miles 3.5 1:31 AM CDT
2014-08-17
Medford, Oklahoma 149 miles 3.8 1:18 AM CDT
2014-08-17
Medford, Oklahoma 157 miles 3.0 9:13 PM CDT
2014-08-16
Minimum magnitude displayed is 2.5.

Coastal Water Temperatures

Place Temperature
No Stations Reporting

Nearby Weather Stations